Terminal Aerodrome Forecast
Issued by NWS Wakefield, VA

Home | Current Version | Previous Version | Text Only | Print | Product List | Glossary On
Versions: 1 2 3 4 5 6 7 8 9 10 11 12 13 14 15 16 17 18 19 20 21 22 23
298
FTUS41 KAKQ 241120
TAFSBY
TAF
KSBY 241120Z 2412/2512 29006KT P6SM SCT100 BKN250
     FM241500 30010KT P6SM BKN060 BKN250
     FM242300 22004KT P6SM SKC=

USA.gov is the U.S. government's official web portal to all federal, state and local government web resources and services.